Pink, Oklahoma
Current Conditions -  °F | °C
As of 3:55 AM on Friday 28 Nov 2014 (Local Time) from KSNL Reporting Station
Clear Clear  
Wind Chill: 40°   Ceiling: Unl
Heat Index: 45°   Visibility: 10mi
Dew Point: 32°   Wind: 8mph
Humidity: 61%   Direction: 180°S
Pressure: 30.21"   Gusts: NA
Location:  35.2189°N, 97.0168°W
Report Text: KSNL 280955Z AUTO 18007KT 10SM CLR 07/00 A3021 RMK AO2
Loading
Personal Weather Stations






























Interactive Weather Map New forecast layout! Learn more

10-Day Weather Forecast

Advertisements
Track Severe Weather on mobile